This is the latest recevied weather packets stored in our database for station/object KK7MLS-13. If no packets are shown the sender has not sent any weather packets the latest 10 day(s).
| Time | Temp. | Humidity | Pressure | Rain* | Wind** | Luminosity | Snow |
|---|---|---|---|---|---|---|---|
| 1787871746 | 27.78° C | 44% | 1018.1 hPa | 0 mm | - | 83 W/m² | - |
| 1787871441 | 27.78° C | 41% | 1018.1 hPa | 0 mm | - | 94 W/m² | - |
| 1787871136 | 26.67° C | 43% | 1018 hPa | 0 mm | - | 552 W/m² | - |
| 1787870836 | 25.56° C | 45% | 1018.2 hPa | 0 mm | - | 572 W/m² | - |
| 1787870532 | 25° C | 46% | 1018.3 hPa | 0 mm | - | 91 W/m² | - |
| 1787870226 | 25.56° C | 45% | 1018.2 hPa | 0 mm | - | 75 W/m² | - |
| 1787869921 | 25.56° C | 46% | 1018.3 hPa | 0 mm | - | 89 W/m² | - |
| 1787869620 | 26.11° C | 45% | 1018.3 hPa | 0 mm | - | 147 W/m² | - |
| 1787869315 | 26.67° C | 43% | 1018.4 hPa | 0 mm | - | 125 W/m² | - |
| 1787869014 | 26.67° C | 44% | 1018.4 hPa | 0 mm | - | 273 W/m² | - |
| 1787868713 | 26.67° C | 43% | 1018.6 hPa | 0 mm | - | 614 W/m² | - |
| 1787868412 | 26.67° C | 43% | 1018.3 hPa | 0 mm | - | 219 W/m² | - |
| 1787868106 | 27.22° C | 42% | 1018.5 hPa | 0 mm | - | 489 W/m² | - |
| 1787867802 | 28.89° C | 37% | 1018.6 hPa | 0 mm | - | 108 W/m² | - |
| 1787867498 | 28.33° C | 39% | 1018.4 hPa | 0 mm | - | 705 W/m² | - |
| 1787867198 | 27.22° C | 42% | 1018.5 hPa | 0 mm | - | 720 W/m² | - |
| 1787866893 | 25.56° C | 45% | 1018.5 hPa | 0 mm | - | 734 W/m² | - |
| 1787866588 | 24.44° C | 48% | 1018.7 hPa | 0 mm | - | 767 W/m² | - |
| 1787866286 | 25° C | 46% | 1018.8 hPa | 0 mm | - | 168 W/m² | - |
| 1787865981 | 25° C | 46% | 1018.7 hPa | 0 mm | - | 145 W/m² | - |
| 1787865678 | 25° C | 49% | 1018.6 hPa | 0 mm | - | 767 W/m² | - |
| 1787865377 | 25.56° C | 45% | 1018.8 hPa | 0 mm | - | 153 W/m² | - |
| 1787865072 | 25° C | 50% | 1018.8 hPa | 0 mm | - | 736 W/m² | - |
| 1787864768 | 23.89° C | 51% | 1018.9 hPa | 0 mm | - | 706 W/m² | - |
| 1787864467 | 23.33° C | 50% | 1018.9 hPa | 0 mm | - | 790 W/m² | - |
* Rain latest hour (hover to see other rain measurements)
** Current wind speed in m/s (hover to see current wind gust speed)